createdAt,value
2023-03-21T00:01:16.579Z,8.65
2023-03-21T00:03:46.980Z,9.30
2023-03-21T00:06:16.392Z,9.13
2023-03-21T00:08:44.821Z,9.32
2023-03-21T00:11:13.526Z,8.60
2023-03-21T00:13:43.437Z,8.80
2023-03-21T00:16:20.016Z,8.95
2023-03-21T00:18:55.358Z,8.63
2023-03-21T00:24:16.991Z,8.80
2023-03-21T00:26:46.176Z,8.25
2023-03-21T00:29:14.754Z,8.35
2023-03-21T00:31:43.260Z,7.93
2023-03-21T00:36:46.709Z,8.70
2023-03-21T00:39:15.420Z,8.52
2023-03-21T00:41:44.051Z,8.32
2023-03-21T00:44:16.037Z,8.50
2023-03-21T00:47:00.869Z,7.85
2023-03-21T00:49:35.199Z,8.25
2023-03-21T00:52:30.579Z,8.80
2023-03-21T00:54:52.246Z,8.25
2023-03-21T00:57:29.373Z,8.10
2023-03-21T01:00:07.725Z,8.00
2023-03-21T01:02:38.042Z,8.10
2023-03-21T01:05:09.994Z,8.05
2023-03-21T01:07:38.469Z,7.90
2023-03-21T01:10:08.282Z,8.88
2023-03-21T01:12:37.165Z,8.13
2023-03-21T01:15:07.393Z,8.50
2023-03-21T01:17:35.873Z,7.68
2023-03-21T01:20:06.919Z,8.65
2023-03-21T01:22:36.789Z,8.02
2023-03-21T01:25:21.067Z,7.72
2023-03-21T01:27:50.249Z,7.72
2023-03-21T01:30:22.829Z,7.65
2023-03-21T01:32:52.451Z,8.07
2023-03-21T01:35:20.915Z,8.00
2023-03-21T01:37:51.670Z,7.32
2023-03-21T01:40:21.545Z,7.47
2023-03-21T01:42:50.051Z,7.63
2023-03-21T01:46:22.403Z,7.70
2023-03-21T01:48:54.599Z,7.40
2023-03-21T01:51:23.627Z,7.65
2023-03-21T01:53:53.542Z,8.05
2023-03-21T01:56:25.828Z,7.50
2023-03-21T01:58:56.531Z,7.50
2023-03-21T02:01:25.045Z,7.25
2023-03-21T02:03:53.950Z,8.02
2023-03-21T02:06:30.527Z,6.90
2023-03-21T02:09:04.707Z,7.63
2023-03-21T02:11:33.337Z,6.97
2023-03-21T02:14:07.074Z,7.28
2023-03-21T02:16:44.062Z,7.25
2023-03-21T02:20:07.227Z,7.22
2023-03-21T02:22:52.674Z,6.57
2023-03-21T02:26:02.548Z,7.65
2023-03-21T02:28:32.069Z,6.47
2023-03-21T02:31:26.705Z,7.32
2023-03-21T02:34:55.462Z,6.85
2023-03-21T02:37:36.663Z,7.43
2023-03-21T02:40:11.368Z,6.82
2023-03-21T02:42:59.478Z,6.82
2023-03-21T02:45:30.435Z,7.00
2023-03-21T02:48:01.400Z,7.05
2023-03-21T02:50:33.316Z,7.32
2023-03-21T02:53:03.579Z,6.60
2023-03-21T02:55:33.253Z,6.53
2023-03-21T02:58:12.533Z,6.57
2023-03-21T03:00:43.017Z,6.45
2023-03-21T03:03:18.124Z,6.97
2023-03-21T03:05:56.464Z,6.38
2023-03-21T03:08:43.063Z,6.53
2023-03-21T03:11:24.673Z,6.60
2023-03-21T03:14:25.094Z,6.50
2023-03-21T03:17:01.095Z,6.60
2023-03-21T03:19:34.457Z,6.53
2023-03-21T03:22:08.077Z,5.97
2023-03-21T03:24:40.787Z,6.38
2023-03-21T03:27:11.283Z,6.57
2023-03-21T03:29:41.839Z,6.97
2023-03-21T03:32:12.852Z,6.03
2023-03-21T03:34:43.192Z,6.07
2023-03-21T03:37:14.203Z,6.35
2023-03-21T03:39:47.604Z,6.03
2023-03-21T03:42:27.991Z,6.40
2023-03-21T03:44:57.274Z,5.75
2023-03-21T03:47:33.672Z,6.05
2023-03-21T03:50:09.082Z,5.80
2023-03-21T03:52:50.117Z,6.28
2023-03-21T03:55:27.317Z,5.68
2023-03-21T03:57:56.022Z,6.15
2023-03-21T04:00:25.482Z,5.70
2023-03-21T04:02:54.083Z,5.80
2023-03-21T04:05:22.817Z,6.13
2023-03-21T04:07:51.389Z,6.68
2023-03-21T04:10:19.979Z,5.50
2023-03-21T04:12:50.205Z,6.13
2023-03-21T04:15:20.518Z,5.57
2023-03-21T04:17:48.971Z,5.63
2023-03-21T04:20:26.741Z,5.93
2023-03-21T04:23:04.459Z,5.90
2023-03-21T04:25:36.930Z,5.70
2023-03-21T04:28:08.471Z,5.70
2023-03-21T04:30:37.824Z,5.13
2023-03-21T04:33:06.868Z,5.70
2023-03-21T04:35:37.640Z,6.40
2023-03-21T04:38:06.291Z,5.07
2023-03-21T04:40:34.892Z,5.20
2023-03-21T04:43:03.708Z,4.90
2023-03-21T04:45:33.593Z,5.20
2023-03-21T04:48:02.306Z,5.63
2023-03-21T04:50:31.925Z,6.07
2023-03-21T04:53:00.411Z,5.03
2023-03-21T04:55:29.608Z,5.43
2023-03-21T04:57:58.073Z,5.32
2023-03-21T05:00:27.271Z,5.40
2023-03-21T05:02:57.796Z,5.95
2023-03-21T05:05:26.250Z,5.85
2023-03-21T05:07:54.702Z,5.63
2023-03-21T05:10:23.141Z,5.57
2023-03-21T05:12:51.589Z,4.72
2023-03-21T05:15:20.286Z,5.30
2023-03-21T05:17:49.197Z,6.00
2023-03-21T05:20:19.780Z,5.22
2023-03-21T05:22:50.365Z,5.57
2023-03-21T05:25:35.607Z,5.68
2023-03-21T05:28:04.295Z,5.65
2023-03-21T05:30:32.916Z,5.53
2023-03-21T05:33:01.451Z,4.90
2023-03-21T05:35:31.351Z,5.20
2023-03-21T05:37:59.839Z,5.07
2023-03-21T05:40:28.365Z,5.35
2023-03-21T05:42:56.868Z,5.10
2023-03-21T05:45:25.966Z,5.50
2023-03-21T05:47:54.556Z,5.18
2023-03-21T05:50:23.041Z,4.90
2023-03-21T05:52:52.951Z,5.13
2023-03-21T05:55:21.421Z,4.95
2023-03-21T05:57:49.881Z,5.50
2023-03-21T06:00:21.982Z,4.95
2023-03-21T06:02:50.729Z,5.30
2023-03-21T06:05:19.361Z,4.88
2023-03-21T06:07:47.844Z,5.22
2023-03-21T06:10:18.050Z,4.78
2023-03-21T06:12:46.498Z,5.30
2023-03-21T06:15:14.982Z,5.03
2023-03-21T06:17:43.492Z,5.18
2023-03-21T06:20:13.218Z,5.18
2023-03-21T06:22:41.929Z,5.07
2023-03-21T06:25:11.237Z,5.18
2023-03-21T06:27:41.144Z,4.95
2023-03-21T06:30:11.503Z,5.40
2023-03-21T06:32:40.715Z,5.18
2023-03-21T06:35:10.108Z,5.20
2023-03-21T06:37:39.007Z,4.88
2023-03-21T06:40:09.739Z,4.85
2023-03-21T06:42:38.221Z,4.63
2023-03-21T06:45:09.658Z,5.10
2023-03-21T06:47:38.389Z,5.38
2023-03-21T06:50:08.032Z,5.05
2023-03-21T06:52:36.511Z,5.20
2023-03-21T06:55:05.337Z,9.50
2023-03-21T06:57:33.904Z,12.68
2023-03-21T07:00:02.493Z,16.42
2023-03-21T07:02:32.643Z,16.08
2023-03-21T07:05:01.098Z,23.13
2023-03-21T07:07:29.924Z,20.33
2023-03-21T07:09:58.460Z,14.60
2023-03-21T07:12:26.940Z,13.45
2023-03-21T07:14:55.453Z,14.20
2023-03-21T07:17:23.867Z,13.75
2023-03-21T07:19:53.843Z,10.95
2023-03-21T07:22:22.404Z,13.10
2023-03-21T07:25:03.962Z,12.02
2023-03-21T07:27:33.498Z,12.35
2023-03-21T07:30:02.057Z,12.43
2023-03-21T07:32:33.885Z,12.15
2023-03-21T07:35:03.776Z,9.90
2023-03-21T07:37:32.245Z,9.90
2023-03-21T07:40:01.917Z,8.95
2023-03-21T07:45:05.115Z,9.45
2023-03-21T07:47:33.635Z,8.77
2023-03-21T07:50:04.606Z,8.77
2023-03-21T07:52:33.268Z,8.43
2023-03-21T07:55:01.865Z,8.52
2023-03-21T07:57:30.448Z,7.95
2023-03-21T07:59:59.008Z,7.85
2023-03-21T08:02:27.676Z,7.60
2023-03-21T08:04:56.436Z,7.93
2023-03-21T08:07:27.846Z,7.05
2023-03-21T08:09:56.279Z,7.40
2023-03-21T08:12:25.103Z,7.68
2023-03-21T08:14:53.581Z,7.57
2023-03-21T08:17:22.179Z,7.40
2023-03-21T08:19:50.661Z,7.38
2023-03-21T08:22:19.127Z,7.82
2023-03-21T08:24:49.040Z,7.53
2023-03-21T08:27:17.486Z,7.10
2023-03-21T08:29:46.118Z,6.60
2023-03-21T08:32:14.610Z,6.38
2023-03-21T08:34:43.247Z,6.45
2023-03-21T08:37:11.685Z,6.70
2023-03-21T08:39:40.189Z,6.97
2023-03-21T08:42:10.099Z,6.28
2023-03-21T08:44:39.821Z,6.65
2023-03-21T08:47:08.302Z,6.70
2023-03-21T08:49:36.826Z,6.80
2023-03-21T08:52:06.234Z,6.20
2023-03-21T08:54:34.981Z,6.40
2023-03-21T08:57:04.174Z,6.60
2023-03-21T08:59:34.307Z,6.93
2023-03-21T09:02:03.464Z,7.38
2023-03-21T09:04:32.427Z,7.32
2023-03-21T09:07:05.291Z,7.47
2023-03-21T09:09:33.794Z,7.63
2023-03-21T09:12:02.307Z,14.98
2023-03-21T09:14:30.935Z,18.90
2023-03-21T09:17:00.819Z,31.85
2023-03-21T09:19:30.255Z,49.58
2023-03-21T09:21:58.728Z,68.43
2023-03-21T09:24:27.565Z,114.20
2023-03-21T09:26:56.637Z,103.40
2023-03-21T09:29:25.082Z,82.85
2023-03-21T09:31:54.534Z,72.90
2023-03-21T09:34:24.744Z,65.20
2023-03-21T09:36:54.805Z,56.47
2023-03-21T09:39:23.323Z,52.22
2023-03-21T09:42:15.401Z,55.25
2023-03-21T09:44:55.608Z,48.97
2023-03-21T09:47:29.405Z,46.78
2023-03-21T09:50:13.558Z,47.13
2023-03-21T09:52:48.263Z,43.85
2023-03-21T09:55:20.121Z,39.70
2023-03-21T09:57:50.676Z,41.60
2023-03-21T10:00:25.768Z,40.97
2023-03-21T10:02:59.990Z,42.22
2023-03-21T10:05:32.056Z,37.67
2023-03-21T10:08:04.913Z,34.45
2023-03-21T10:10:36.495Z,51.78
2023-03-21T10:13:05.497Z,48.95
2023-03-21T10:15:34.005Z,39.15
2023-03-21T10:18:03.609Z,39.97
2023-03-21T10:20:34.344Z,40.92
2023-03-21T10:23:05.523Z,36.03
2023-03-21T10:25:35.542Z,38.17
2023-03-21T10:28:04.912Z,37.80
2023-03-21T10:30:41.288Z,38.30
2023-03-21T10:33:13.746Z,32.80
2023-03-21T10:35:46.209Z,34.95
2023-03-21T10:38:17.361Z,32.28
2023-03-21T10:40:46.024Z,30.95
2023-03-21T10:43:33.990Z,28.35
2023-03-21T10:46:12.764Z,31.23
2023-03-21T10:48:46.307Z,31.83
2023-03-21T10:51:20.681Z,29.92
2023-03-21T10:53:53.214Z,30.67
2023-03-21T10:56:23.965Z,30.17
2023-03-21T10:58:53.331Z,30.33
2023-03-21T11:01:30.488Z,30.88
2023-03-21T11:04:01.084Z,29.77
2023-03-21T11:06:32.312Z,31.02
2023-03-21T11:09:04.718Z,30.05
2023-03-21T11:11:38.690Z,30.50
2023-03-21T11:14:09.396Z,29.90
2023-03-21T11:16:41.038Z,30.98
2023-03-21T11:19:17.466Z,29.58
2023-03-21T11:21:47.517Z,29.42
2023-03-21T11:24:18.185Z,29.77
2023-03-21T11:26:48.237Z,29.70
2023-03-21T11:29:28.786Z,31.52
2023-03-21T11:32:02.224Z,31.83
2023-03-21T11:34:35.201Z,30.60
2023-03-21T11:37:04.999Z,37.30
2023-03-21T11:39:40.368Z,57.90
2023-03-21T11:42:31.376Z,61.72
2023-03-21T11:45:11.836Z,34.65
2023-03-21T11:47:40.657Z,32.53
2023-03-21T11:50:21.784Z,31.85
2023-03-21T11:53:04.918Z,29.52
2023-03-21T11:55:39.618Z,29.45
2023-03-21T11:58:27.027Z,29.85
2023-03-21T12:00:59.859Z,30.77
2023-03-21T12:03:52.603Z,28.58
2023-03-21T12:06:28.538Z,28.95
2023-03-21T12:09:24.022Z,27.95
2023-03-21T12:12:01.278Z,31.27
2023-03-21T12:14:35.664Z,29.35
2023-03-21T12:17:11.826Z,28.50
2023-03-21T12:20:12.196Z,29.15
2023-03-21T12:22:48.570Z,27.92
2023-03-21T12:25:22.167Z,28.70
2023-03-21T12:27:56.454Z,27.85
2023-03-21T12:30:34.598Z,26.50
2023-03-21T12:33:20.350Z,25.67
2023-03-21T12:36:07.274Z,25.13
2023-03-21T12:38:41.838Z,26.25
2023-03-21T12:41:23.762Z,26.20
2023-03-21T12:43:55.888Z,24.35
2023-03-21T12:46:27.381Z,26.48
2023-03-21T12:48:58.703Z,25.13
2023-03-21T12:51:32.571Z,24.58
2023-03-21T12:54:07.011Z,25.45
2023-03-21T12:56:39.572Z,23.63
2023-03-21T12:59:17.364Z,23.85
2023-03-21T13:01:45.945Z,22.23
2023-03-21T13:04:33.880Z,22.67
2023-03-21T13:07:04.199Z,21.67
2023-03-21T13:09:38.260Z,23.02
2023-03-21T13:12:23.592Z,21.65
2023-03-21T13:15:12.486Z,22.55
2023-03-21T13:17:45.741Z,21.83
2023-03-21T13:20:21.567Z,21.15
2023-03-21T13:22:50.071Z,21.30
2023-03-21T13:25:20.505Z,21.83
2023-03-21T13:27:57.390Z,21.38
2023-03-21T13:30:27.361Z,20.52
2023-03-21T13:33:05.847Z,20.42
2023-03-21T13:35:39.337Z,21.35
2023-03-21T13:38:13.056Z,19.85
2023-03-21T13:40:45.080Z,20.08
2023-03-21T13:43:44.074Z,19.55
2023-03-21T13:46:13.673Z,19.67
2023-03-21T13:49:03.698Z,18.77
2023-03-21T13:51:47.038Z,19.50
2023-03-21T13:54:30.822Z,19.42
2023-03-21T13:57:01.404Z,19.10
2023-03-21T13:59:44.736Z,18.70
2023-03-21T14:02:30.651Z,17.50
2023-03-21T14:05:06.435Z,19.02
2023-03-21T14:07:36.869Z,18.23
2023-03-21T14:10:07.952Z,17.58
2023-03-21T14:12:40.879Z,17.80
2023-03-21T14:15:18.040Z,17.88
2023-03-21T14:17:52.535Z,17.52
2023-03-21T14:20:23.559Z,17.63
2023-03-21T14:22:52.187Z,17.10
2023-03-21T14:25:23.233Z,17.45
2023-03-21T14:27:55.473Z,16.20
2023-03-21T14:30:27.378Z,16.67
2023-03-21T14:32:57.512Z,15.88
2023-03-21T14:35:26.901Z,16.02
2023-03-21T14:37:56.464Z,16.83
2023-03-21T14:40:26.648Z,16.52
2023-03-21T14:42:55.630Z,16.33
2023-03-21T14:45:27.239Z,14.80
2023-03-21T14:48:00.117Z,15.60
2023-03-21T14:50:37.468Z,15.10
2023-03-21T14:53:06.452Z,14.95
2023-03-21T14:55:34.940Z,15.45
2023-03-21T14:58:05.590Z,15.82
2023-03-21T15:00:36.663Z,14.98
2023-03-21T15:03:05.393Z,14.68
2023-03-21T15:05:37.296Z,14.95
2023-03-21T15:08:10.457Z,14.90
2023-03-21T15:10:39.618Z,14.20
2023-03-21T15:13:16.220Z,14.45
2023-03-21T15:15:46.164Z,14.65
2023-03-21T15:18:16.864Z,14.25
2023-03-21T15:20:45.456Z,14.82
2023-03-21T15:23:15.934Z,14.05
2023-03-21T15:25:44.460Z,14.32
2023-03-21T15:28:13.983Z,13.82
2023-03-21T15:30:49.028Z,13.95
2023-03-21T15:33:17.775Z,14.20
2023-03-21T15:35:54.246Z,13.85
2023-03-21T15:38:25.336Z,13.75
2023-03-21T15:40:53.836Z,13.45
2023-03-21T15:43:22.602Z,14.25
2023-03-21T15:45:57.217Z,13.52
2023-03-21T15:48:27.682Z,12.93
2023-03-21T15:51:01.522Z,12.35
2023-03-21T15:53:30.579Z,13.48
2023-03-21T15:56:02.740Z,13.38
2023-03-21T15:58:36.428Z,12.82
2023-03-21T16:01:09.609Z,12.73
2023-03-21T16:03:40.568Z,12.98
2023-03-21T16:06:17.866Z,13.13
2023-03-21T16:08:47.559Z,12.23
2023-03-21T16:11:19.308Z,12.57
2023-03-21T16:13:47.743Z,13.05
2023-03-21T16:16:19.413Z,12.93
2023-03-21T16:18:48.852Z,11.77
2023-03-21T16:21:18.961Z,12.77
2023-03-21T16:23:47.581Z,11.75
2023-03-21T16:26:17.669Z,12.77
2023-03-21T16:28:46.303Z,12.70
2023-03-21T16:31:15.824Z,11.98
2023-03-21T16:33:45.875Z,12.70
2023-03-21T16:36:15.569Z,11.80
2023-03-21T16:38:44.047Z,11.68
2023-03-21T16:41:13.037Z,11.23
2023-03-21T16:43:43.434Z,12.20
2023-03-21T16:46:15.721Z,12.15
2023-03-21T16:48:46.662Z,11.70
2023-03-21T16:51:16.399Z,11.38
2023-03-21T16:53:44.973Z,10.95
2023-03-21T16:56:16.882Z,11.30
2023-03-21T16:58:45.510Z,12.00
2023-03-21T17:01:15.946Z,12.20
2023-03-21T17:03:46.032Z,11.05
2023-03-21T17:06:16.584Z,11.45
2023-03-21T17:08:45.356Z,11.52
2023-03-21T17:11:16.451Z,11.75
2023-03-21T17:13:45.117Z,11.48
2023-03-21T17:16:13.840Z,10.82
2023-03-21T17:18:42.531Z,11.20
2023-03-21T17:21:14.886Z,11.18
2023-03-21T17:23:43.382Z,11.18
2023-03-21T17:26:12.867Z,10.65
2023-03-21T17:28:41.601Z,10.77
2023-03-21T17:31:14.403Z,10.40
2023-03-21T17:33:43.042Z,10.52
2023-03-21T17:36:16.327Z,10.77
2023-03-21T17:38:46.010Z,10.30
2023-03-21T17:41:14.914Z,10.20
2023-03-21T17:43:43.379Z,11.05
2023-03-21T17:46:14.170Z,10.45
2023-03-21T17:48:42.728Z,10.57
2023-03-21T17:51:14.769Z,10.45
2023-03-21T17:53:44.808Z,9.75
2023-03-21T17:56:16.145Z,10.32
2023-03-21T17:58:44.597Z,10.63
2023-03-21T18:01:13.195Z,11.18
2023-03-21T18:03:41.659Z,11.45
2023-03-21T18:06:16.204Z,10.57
2023-03-21T18:08:46.499Z,10.88
2023-03-21T18:11:15.213Z,10.50
2023-03-21T18:13:44.004Z,10.48
2023-03-21T18:16:14.380Z,11.43
2023-03-21T18:18:42.854Z,10.20
2023-03-21T18:21:11.485Z,10.98
2023-03-21T18:23:40.169Z,10.60
2023-03-21T18:26:10.645Z,10.52
2023-03-21T18:28:41.216Z,10.40
2023-03-21T18:31:16.764Z,10.63
2023-03-21T18:33:48.603Z,10.73
2023-03-21T18:36:24.697Z,11.10
2023-03-21T18:38:55.151Z,10.35
2023-03-21T18:41:25.373Z,10.80
2023-03-21T18:44:09.407Z,10.13
2023-03-21T18:46:47.031Z,10.60
2023-03-21T18:52:04.414Z,10.30
2023-03-21T18:54:33.983Z,10.60
2023-03-21T18:57:34.594Z,10.02
2023-03-21T18:59:53.288Z,10.50
2023-03-21T19:02:22.347Z,9.60
2023-03-21T19:04:50.959Z,10.50
2023-03-21T19:07:19.577Z,10.35
2023-03-21T19:10:10.687Z,10.55
2023-03-21T19:12:38.114Z,9.50
2023-03-21T19:15:08.373Z,10.27
2023-03-21T19:18:23.286Z,10.05
2023-03-21T19:20:25.733Z,9.55
2023-03-21T19:22:54.390Z,9.38
2023-03-21T19:25:23.105Z,9.05
2023-03-21T19:27:53.101Z,9.95
2023-03-21T19:30:22.003Z,10.00
2023-03-21T19:32:50.913Z,9.52
2023-03-21T19:35:19.763Z,9.80
2023-03-21T19:37:48.354Z,10.10
2023-03-21T19:40:17.046Z,8.98
2023-03-21T19:42:45.899Z,8.80
2023-03-21T19:45:16.062Z,9.43
2023-03-21T19:47:44.596Z,9.00
2023-03-21T19:50:47.811Z,10.13
2023-03-21T19:53:01.905Z,10.02
2023-03-21T19:55:31.015Z,9.52
2023-03-21T19:57:59.846Z,9.35
2023-03-21T20:00:30.398Z,9.27
2023-03-21T20:02:59.137Z,9.68
2023-03-21T20:05:27.808Z,8.65
2023-03-21T20:07:57.305Z,8.80
2023-03-21T20:10:27.769Z,9.02
2023-03-21T20:12:56.356Z,9.07
2023-03-21T20:15:28.380Z,8.98
2023-03-21T20:17:59.867Z,8.98
2023-03-21T20:20:28.417Z,8.40
2023-03-21T20:23:06.947Z,8.98
2023-03-21T20:25:36.536Z,8.82
2023-03-21T20:28:15.915Z,9.10
2023-03-21T20:30:49.929Z,9.02
2023-03-21T20:33:31.810Z,9.30
2023-03-21T20:36:38.154Z,8.90
2023-03-21T20:38:53.357Z,8.55
2023-03-21T20:41:22.115Z,9.52
2023-03-21T20:46:39.247Z,8.85
2023-03-21T20:49:10.065Z,8.45
2023-03-21T20:52:45.979Z,8.48
2023-03-21T20:54:27.722Z,9.40
2023-03-21T20:56:56.849Z,9.25
2023-03-21T20:59:28.037Z,8.10
2023-03-21T21:01:57.395Z,8.85
2023-03-21T21:07:18.559Z,8.27
2023-03-21T21:09:47.157Z,8.82
2023-03-21T21:12:16.596Z,8.95
2023-03-21T21:14:45.465Z,8.45
2023-03-21T21:20:12.411Z,9.07
2023-03-21T21:22:42.870Z,8.55
2023-03-21T21:25:14.485Z,8.35
2023-03-21T21:27:43.057Z,9.13
2023-03-21T21:30:13.439Z,8.60
2023-03-21T21:32:42.293Z,8.80
2023-03-21T21:35:12.547Z,9.38
2023-03-21T21:37:43.078Z,8.55
2023-03-21T21:40:19.320Z,8.63
2023-03-21T21:42:47.795Z,8.73
2023-03-21T21:45:17.120Z,8.23
2023-03-21T21:47:45.950Z,8.55
2023-03-21T21:50:15.943Z,9.07
2023-03-21T21:52:52.825Z,8.85
2023-03-21T21:55:21.685Z,8.55
2023-03-21T21:57:51.472Z,8.73
2023-03-21T22:00:21.254Z,8.35
2023-03-21T22:02:49.783Z,8.20
2023-03-21T22:05:21.013Z,8.05
2023-03-21T22:07:49.680Z,8.55
2023-03-21T22:10:18.406Z,8.55
2023-03-21T22:12:47.192Z,8.35
2023-03-21T22:15:17.980Z,8.75
2023-03-21T22:17:46.909Z,8.27
2023-03-21T22:20:16.974Z,8.70
2023-03-21T22:22:47.154Z,8.40
2023-03-21T22:25:16.988Z,8.82
2023-03-21T22:27:45.966Z,9.52
2023-03-21T22:30:17.446Z,8.05
2023-03-21T22:32:51.469Z,8.23
2023-03-21T22:35:25.427Z,9.32
2023-03-21T22:37:55.448Z,8.55
2023-03-21T22:40:24.440Z,8.77
2023-03-21T22:42:52.894Z,8.82
2023-03-21T22:45:21.520Z,8.32
2023-03-21T22:47:51.503Z,9.00
2023-03-21T22:50:20.404Z,8.40
2023-03-21T22:52:48.873Z,7.80
2023-03-21T22:55:19.139Z,8.25
2023-03-21T22:57:47.559Z,8.43
2023-03-21T23:00:18.487Z,8.75
2023-03-21T23:02:47.040Z,8.02
2023-03-21T23:05:15.555Z,8.57
2023-03-21T23:07:44.093Z,8.40
2023-03-21T23:10:13.256Z,8.63
2023-03-21T23:12:43.176Z,8.93
2023-03-21T23:15:12.493Z,8.40
2023-03-21T23:17:41.009Z,8.60
2023-03-21T23:20:10.970Z,8.32
2023-03-21T23:22:39.584Z,8.98
2023-03-21T23:25:09.307Z,7.72
2023-03-21T23:27:37.798Z,8.38
2023-03-21T23:30:09.332Z,9.10
2023-03-21T23:32:37.889Z,8.18
2023-03-21T23:35:07.778Z,8.45
2023-03-21T23:37:36.314Z,8.63
2023-03-21T23:40:07.235Z,7.80
2023-03-21T23:42:36.365Z,8.50
2023-03-21T23:45:05.463Z,8.35
2023-03-21T23:47:35.333Z,8.85
2023-03-21T23:50:06.971Z,8.18
2023-03-21T23:52:35.619Z,9.15
2023-03-21T23:55:04.281Z,8.02
2023-03-21T23:57:32.776Z,8.48
